Time;durP1;ratioP1;P1;durP2;ratioP2;P2;SDS_P1;SDS_P2;PMS_P1;PMS_P2;Temp;Humidity;BMP_temperature;BMP_pressure;BME280_temperature;BME280_humidity;BME280_pressure;Samples;Min_cycle;Max_cycle;Signal;HPM_P1;HPM_P2
2022/08/19 00:00:21;;;;;;;7.50;6.35;;;16.40;99.90;;;;;;5073130;28;20070;-75
2022/08/19 00:02:47;;;;;;;7.28;5.82;;;16.10;99.90;;;;;;5074253;28;20110;-74
2022/08/19 00:05:14;;;;;;;7.63;5.95;;;16.20;99.90;;;;;;5072452;28;20106;-74
2022/08/19 00:07:42;;;;;;;8.32;5.60;;;16.30;99.90;;;;;;5055632;28;20044;-74
2022/08/19 00:10:10;;;;;;;10.05;5.97;;;16.20;99.90;;;;;;5074404;28;20046;-74
2022/08/19 00:12:37;;;;;;;6.10;5.00;;;16.30;99.90;;;;;;5073853;28;20182;-74
2022/08/19 00:15:13;;;;;;;7.45;5.07;;;16.20;99.90;;;;;;5072953;28;20127;-74
2022/08/19 00:17:40;;;;;;;6.60;5.80;;;16.20;99.90;;;;;;5073852;28;20392;-74
2022/08/19 00:20:07;;;;;;;6.80;5.15;;;16.30;99.90;;;;;;5073463;28;20033;-74
2022/08/19 00:22:33;;;;;;;5.53;4.93;;;16.10;99.90;;;;;;5073279;28;20492;-74
2022/08/19 00:24:59;;;;;;;5.32;4.28;;;16.10;99.90;;;;;;5073291;28;20044;-74
2022/08/19 00:27:25;;;;;;;6.97;4.10;;;16.30;99.90;;;;;;5073524;28;20055;-74
2022/08/19 00:29:50;;;;;;;4.88;4.13;;;16.10;99.90;;;;;;5072253;28;20048;-74
2022/08/19 00:32:17;;;;;;;5.93;4.35;;;16.00;99.90;;;;;;5073469;28;20052;-74
2022/08/19 00:34:43;;;;;;;5.07;4.10;;;15.90;99.90;;;;;;5072471;28;20041;-74
2022/08/19 00:37:09;;;;;;;4.93;3.72;;;16.00;99.90;;;;;;5072402;28;20083;-75
2022/08/19 00:39:35;;;;;;;4.70;3.85;;;16.20;99.90;;;;;;5073360;28;20123;-74
2022/08/19 00:42:01;;;;;;;4.95;3.75;;;16.30;99.90;;;;;;5072371;28;20041;-74
2022/08/19 00:44:30;;;;;;;4.03;3.45;;;16.00;99.90;;;;;;5073355;28;20048;-74
2022/08/19 00:46:58;;;;;;;6.07;4.20;;;16.10;99.90;;;;;;5073161;28;20469;-74
2022/08/19 00:49:36;;;;;;;6.28;4.38;;;15.90;99.90;;;;;;5073201;28;20037;-74
2022/08/19 00:52:38;;;;;;;5.82;4.15;;;16.00;99.90;;;;;;5073153;28;20079;-74
2022/08/19 00:55:10;;;;;;;6.30;4.47;;;16.10;99.90;;;;;;5069992;28;20052;-74
2022/08/19 00:57:39;;;;;;;5.80;4.18;;;16.10;99.90;;;;;;5073063;28;20040;-74
2022/08/19 01:00:12;;;;;;;6.15;4.43;;;15.90;99.90;;;;;;5072474;28;20045;-74
2022/08/19 01:02:38;;;;;;;4.72;4.03;;;15.90;99.90;;;;;;5072566;28;20435;-74
2022/08/19 01:05:10;;;;;;;5.05;4.35;;;15.80;99.90;;;;;;5073085;28;20092;-75
2022/08/19 01:07:38;;;;;;;6.28;3.85;;;15.90;99.90;;;;;;5073003;28;20110;-75
2022/08/19 01:10:08;;;;;;;7.78;5.05;;;15.90;99.90;;;;;;5071884;28;20075;-74
2022/08/19 01:12:34;;;;;;;7.18;5.10;;;16.00;99.90;;;;;;5073121;28;20055;-74
2022/08/19 01:15:00;;;;;;;7.78;4.32;;;15.70;99.90;;;;;;5072073;28;20128;-74
2022/08/19 01:17:27;;;;;;;6.60;4.38;;;15.90;99.90;;;;;;5072023;28;20044;-74
2022/08/19 01:19:53;;;;;;;7.05;4.57;;;15.80;99.90;;;;;;5072781;28;20123;-74
2022/08/19 01:22:30;;;;;;;8.35;5.40;;;15.60;99.90;;;;;;5072963;28;20090;-74
2022/08/19 01:24:56;;;;;;;9.20;5.47;;;15.90;99.90;;;;;;5072583;28;20102;-74
2022/08/19 01:27:22;;;;;;;8.20;5.50;;;15.90;99.90;;;;;;5072904;28;20128;-74
2022/08/19 01:29:48;;;;;;;9.60;5.18;;;15.70;99.90;;;;;;5071387;28;20119;-74
2022/08/19 01:32:16;;;;;;;8.18;4.93;;;15.70;99.90;;;;;;5072589;28;20040;-74
2022/08/19 01:34:46;;;;;;;6.03;4.57;;;15.60;99.90;;;;;;5074370;28;20041;-74
2022/08/19 01:37:12;;;;;;;6.05;4.32;;;15.70;99.90;;;;;;5076354;28;20048;-74
2022/08/19 01:39:40;;;;;;;8.68;5.00;;;15.80;99.90;;;;;;5076351;28;20081;-75
2022/08/19 01:42:10;;;;;;;6.80;4.32;;;15.60;99.90;;;;;;5076572;28;20044;-74
2022/08/19 01:44:37;;;;;;;5.63;4.60;;;15.60;99.90;;;;;;5076467;28;20525;-74
2022/08/19 01:47:03;;;;;;;6.53;4.80;;;15.60;99.90;;;;;;5058639;28;20082;-75
2022/08/19 01:49:29;;;;;;;5.78;4.32;;;15.60;99.90;;;;;;5076084;28;20040;-75
2022/08/19 01:51:55;;;;;;;4.50;3.95;;;15.50;99.90;;;;;;5074979;28;20045;-75
2022/08/19 01:54:23;;;;;;;6.05;4.35;;;15.50;99.90;;;;;;5075965;28;20098;-74
2022/08/19 01:56:52;;;;;;;5.25;4.45;;;15.50;99.90;;;;;;5075939;28;20053;-74
2022/08/19 01:59:21;;;;;;;8.55;6.47;;;15.50;99.90;;;;;;5074881;28;20049;-74
2022/08/19 02:01:47;;;;;;;12.35;6.95;;;15.40;99.90;;;;;;5076132;28;20045;-74
2022/08/19 02:04:13;;;;;;;9.90;6.53;;;15.50;99.90;;;;;;5074871;28;20538;-75
2022/08/19 02:06:39;;;;;;;10.27;5.80;;;15.50;99.90;;;;;;5075319;28;20508;-74
2022/08/19 02:09:06;;;;;;;8.10;5.72;;;15.50;99.90;;;;;;5075900;28;20126;-75
2022/08/19 02:11:35;;;;;;;10.85;5.90;;;15.60;99.90;;;;;;5075030;28;20048;-75
2022/08/19 02:14:05;;;;;;;7.57;5.85;;;15.30;99.90;;;;;;5074959;28;20048;-74
2022/08/19 02:16:32;;;;;;;7.40;5.60;;;15.40;99.90;;;;;;5075626;28;20055;-74
2022/08/19 02:19:00;;;;;;;8.38;5.95;;;15.40;99.90;;;;;;5074652;28;20472;-75
2022/08/19 02:21:26;;;;;;;7.25;5.75;;;15.50;99.90;;;;;;5074247;28;20049;-75
2022/08/19 02:23:52;;;;;;;6.85;5.40;;;15.40;99.90;;;;;;5057656;28;20080;-74
2022/08/19 02:26:19;;;;;;;6.80;4.95;;;15.40;99.90;;;;;;5075438;28;20496;-75
2022/08/19 02:28:44;;;;;;;7.57;5.18;;;15.30;99.90;;;;;;5074478;28;20059;-74
2022/08/19 02:31:15;;;;;;;7.13;5.28;;;15.40;99.90;;;;;;5074088;28;20396;-74
2022/08/19 02:33:41;;;;;;;5.63;4.93;;;15.20;99.90;;;;;;5074271;28;20052;-74
2022/08/19 02:36:08;;;;;;;7.15;4.78;;;15.40;99.90;;;;;;5075308;28;20084;-75
2022/08/19 02:38:35;;;;;;;7.10;5.38;;;15.40;99.90;;;;;;5075247;28;20496;-75
2022/08/19 02:41:04;;;;;;;9.02;5.47;;;15.20;99.90;;;;;;5074053;28;20084;-75
2022/08/19 02:43:32;;;;;;;7.03;5.32;;;15.30;99.90;;;;;;5074499;28;20090;-75
2022/08/19 02:45:57;;;;;;;7.97;5.80;;;15.20;99.90;;;;;;5074075;28;20197;-74
2022/08/19 02:48:25;;;;;;;7.28;5.50;;;15.30;99.90;;;;;;5058215;28;20404;-75
2022/08/19 02:50:55;;;;;;;6.32;5.10;;;15.20;99.90;;;;;;5074804;28;20044;-75
2022/08/19 02:53:26;;;;;;;6.20;4.93;;;15.30;99.90;;;;;;5074951;28;20080;-74
2022/08/19 02:55:52;;;;;;;8.83;5.60;;;15.30;99.90;;;;;;5075675;28;20103;-74
2022/08/19 02:58:20;;;;;;;9.15;5.28;;;15.30;99.90;;;;;;5073404;28;20076;-74
2022/08/19 03:00:48;;;;;;;8.98;5.85;;;15.20;99.90;;;;;;5073728;28;20489;-75
2022/08/19 03:03:15;;;;;;;7.10;5.20;;;15.40;99.90;;;;;;5073776;28;20109;-74
2022/08/19 03:05:41;;;;;;;9.35;5.32;;;15.10;99.90;;;;;;5074339;28;20416;-75
2022/08/19 03:08:12;;;;;;;9.40;5.90;;;15.30;99.90;;;;;;5074543;28;20049;-75
2022/08/19 03:10:46;;;;;;;8.10;6.07;;;15.30;99.90;;;;;;5074460;28;20043;-74
2022/08/19 03:13:14;;;;;;;9.10;5.95;;;15.10;99.90;;;;;;5074230;28;20492;-74
2022/08/19 03:15:42;;;;;;;8.77;6.75;;;15.20;99.90;;;;;;5074435;28;20123;-75
2022/08/19 03:18:08;;;;;;;9.38;6.50;;;15.10;99.90;;;;;;5073121;28;20049;-75
2022/08/19 03:20:34;;;;;;;10.35;6.43;;;15.10;99.90;;;;;;5074250;28;20047;-75
2022/08/19 03:22:59;;;;;;;8.77;6.40;;;15.30;99.90;;;;;;5073318;28;20053;-75
2022/08/19 03:25:25;;;;;;;9.07;6.38;;;15.20;99.90;;;;;;5075107;28;20071;-74
2022/08/19 03:27:51;;;;;;;9.52;6.30;;;15.60;99.90;;;;;;5074187;28;20127;-75
2022/08/19 03:30:16;;;;;;;11.02;5.97;;;15.50;99.90;;;;;;5072903;28;20094;-74
2022/08/19 03:32:43;;;;;;;9.05;6.20;;;15.30;99.90;;;;;;5056586;28;20063;-74
2022/08/19 03:35:09;;;;;;;8.95;6.28;;;15.30;99.90;;;;;;5072891;28;20040;-74
2022/08/19 03:37:34;;;;;;;9.90;6.03;;;15.30;99.90;;;;;;5056469;28;20066;-75
2022/08/19 03:40:03;;;;;;;8.48;6.13;;;15.10;99.90;;;;;;5074013;28;20074;-74
2022/08/19 03:42:29;;;;;;;11.02;6.45;;;15.30;99.90;;;;;;5074564;28;20090;-74
2022/08/19 03:44:54;;;;;;;7.85;5.70;;;15.10;99.90;;;;;;5072948;28;20061;-74
2022/08/19 03:47:20;;;;;;;8.55;5.60;;;15.20;99.90;;;;;;5073854;28;20370;-75
2022/08/19 03:49:46;;;;;;;11.98;6.80;;;15.20;99.90;;;;;;5073155;28;20076;-75
2022/08/19 03:52:12;;;;;;;10.75;6.75;;;15.20;99.90;;;;;;5073750;28;20052;-75
2022/08/19 03:54:39;;;;;;;8.52;5.80;;;15.10;99.90;;;;;;5040212;28;20040;-74
2022/08/19 03:57:05;;;;;;;7.88;5.32;;;15.30;99.90;;;;;;5074059;28;20044;-74
2022/08/19 03:59:35;;;;;;;7.43;5.20;;;15.20;99.90;;;;;;5073605;28;20041;-74
2022/08/19 04:02:05;;;;;;;7.30;5.03;;;15.20;99.90;;;;;;5073637;28;20048;-74
2022/08/19 04:04:30;;;;;;;8.23;4.32;;;15.00;99.90;;;;;;5073460;28;20044;-74
2022/08/19 04:06:56;;;;;;;7.03;4.55;;;15.20;99.90;;;;;;5073981;28;20049;-75
2022/08/19 04:09:22;;;;;;;7.05;4.53;;;15.10;99.90;;;;;;5055887;28;20045;-75
2022/08/19 04:11:53;;;;;;;6.90;4.60;;;15.10;99.90;;;;;;5073597;28;20048;-75
2022/08/19 04:14:21;;;;;;;6.97;4.57;;;15.10;99.90;;;;;;5074409;28;20055;-75
2022/08/19 04:16:48;;;;;;;6.93;4.90;;;15.10;99.90;;;;;;5074059;28;20392;-75
2022/08/19 04:19:16;;;;;;;8.57;5.10;;;15.10;99.90;;;;;;5055817;28;20048;-74
2022/08/19 04:21:47;;;;;;;6.28;4.65;;;15.10;99.90;;;;;;5072240;28;20060;-75
2022/08/19 04:24:13;;;;;;;7.50;4.55;;;15.00;99.90;;;;;;5073217;28;20607;-75
2022/08/19 04:26:39;;;;;;;7.95;4.93;;;15.00;99.90;;;;;;5073443;28;20044;-74
2022/08/19 04:29:11;;;;;;;10.60;5.75;;;15.10;99.90;;;;;;5073496;28;20137;-75
2022/08/19 04:31:37;;;;;;;9.70;4.72;;;15.10;99.90;;;;;;5073487;28;20045;-74
2022/08/19 04:34:10;;;;;;;9.30;5.35;;;15.00;99.90;;;;;;5073224;28;20040;-74
2022/08/19 04:36:37;;;;;;;8.63;5.32;;;15.00;99.90;;;;;;5073884;28;20049;-75
2022/08/19 04:39:11;;;;;;;8.70;5.32;;;14.90;99.90;;;;;;5073466;28;20047;-75
2022/08/19 04:44:22;;;;;;;18.30;4.30;;;14.90;99.90;;;;;;5072734;28;20110;-75
2022/08/19 04:46:49;;;;;;;5.30;3.63;;;15.00;99.90;;;;;;5055829;28;20044;-75
2022/08/19 04:49:17;;;;;;;24.65;5.57;;;14.80;99.90;;;;;;5072505;28;20084;-75
2022/08/19 04:51:44;;;;;;;7.93;4.00;;;14.80;99.90;;;;;;5071807;28;20052;-75
2022/08/19 04:54:12;;;;;;;5.57;3.53;;;14.80;99.90;;;;;;5072464;28;20044;-74
2022/08/19 04:56:39;;;;;;;5.30;3.75;;;15.00;99.90;;;;;;5073089;28;20131;-75
2022/08/19 04:59:05;;;;;;;6.20;3.85;;;15.00;99.90;;;;;;5073537;28;20389;-75
2022/08/19 05:01:33;;;;;;;6.50;4.22;;;15.00;99.90;;;;;;5072067;28;20041;-75
2022/08/19 05:04:04;;;;;;;8.60;5.05;;;14.70;99.90;;;;;;5055546;28;20415;-74
2022/08/19 05:06:32;;;;;;;7.20;4.65;;;15.10;99.90;;;;;;5071867;28;20086;-75
2022/08/19 05:08:59;;;;;;;7.35;4.05;;;15.00;99.90;;;;;;5073531;28;20048;-74
2022/08/19 05:11:28;;;;;;;6.85;4.55;;;14.90;99.90;;;;;;5075759;28;20113;-74
2022/08/19 05:13:55;;;;;;;6.70;4.55;;;15.00;99.90;;;;;;5076184;28;20044;-74
2022/08/19 05:16:23;;;;;;;6.55;4.63;;;15.00;99.90;;;;;;5075855;28;20044;-75
2022/08/19 05:24:19;;;;;;;10.13;6.10;;;15.10;99.90;;;;;;5076444;28;20055;-74
2022/08/19 05:26:47;;;;;;;9.88;6.75;;;15.00;99.90;;;;;;5075618;28;20057;-75
2022/08/19 05:29:19;;;;;;;9.95;6.82;;;14.90;99.90;;;;;;5076734;28;20141;-74
2022/08/19 05:31:47;;;;;;;7.95;5.55;;;15.00;99.90;;;;;;5077152;28;20060;-74
2022/08/19 05:34:13;;;;;;;8.13;5.57;;;15.10;99.90;;;;;;5076499;28;20049;-74
2022/08/19 05:36:41;;;;;;;9.45;5.93;;;15.20;99.90;;;;;;5076972;28;20136;-75
2022/08/19 05:39:10;;;;;;;8.25;6.32;;;15.30;99.90;;;;;;5075284;28;20080;-75
2022/08/19 05:41:40;;;;;;;9.15;5.57;;;15.10;99.90;;;;;;5076305;28;20135;-75
2022/08/19 05:44:08;;;;;;;8.75;5.78;;;15.30;99.90;;;;;;5075220;28;20099;-75
2022/08/19 05:46:38;;;;;;;8.63;6.22;;;15.10;99.90;;;;;;5075233;28;20052;-75
2022/08/19 05:49:06;;;;;;;9.20;6.28;;;15.50;99.90;;;;;;5075489;28;20055;-75
2022/08/19 05:51:33;;;;;;;10.90;6.45;;;15.30;99.90;;;;;;5076268;28;20050;-75
2022/08/19 05:53:58;;;;;;;9.10;5.82;;;15.30;99.90;;;;;;5076325;28;20080;-75
2022/08/19 05:56:24;;;;;;;10.38;6.70;;;15.50;99.90;;;;;;5074851;28;20476;-74
2022/08/19 05:58:50;;;;;;;11.32;7.57;;;15.50;99.90;;;;;;5075456;28;20044;-75
2022/08/19 06:01:18;;;;;;;10.85;6.88;;;15.40;99.90;;;;;;5075271;28;20342;-75
2022/08/19 06:03:44;;;;;;;10.52;7.40;;;15.60;99.90;;;;;;5074908;28;20086;-75
2022/08/19 06:06:12;;;;;;;12.57;7.10;;;15.50;99.90;;;;;;5075111;28;20096;-75
2022/08/19 06:08:38;;;;;;;9.98;6.68;;;15.50;99.90;;;;;;5074759;28;20465;-74
2022/08/19 06:11:16;;;;;;;12.15;7.75;;;15.70;99.90;;;;;;5075215;28;20059;-75
2022/08/19 06:13:46;;;;;;;11.50;7.25;;;15.80;99.90;;;;;;5074974;28;20043;-74
2022/08/19 06:16:13;;;;;;;11.82;7.43;;;15.70;99.90;;;;;;5074921;28;20067;-75
2022/08/19 06:18:39;;;;;;;8.55;6.45;;;15.90;99.90;;;;;;5074554;28;20060;-74
2022/08/19 06:21:04;;;;;;;10.02;7.22;;;15.80;99.90;;;;;;5074124;28;20049;-75
2022/08/19 06:23:30;;;;;;;10.65;7.18;;;16.00;99.90;;;;;;5075490;28;20041;-74
2022/08/19 06:25:56;;;;;;;12.23;8.15;;;16.00;99.90;;;;;;5057713;28;20040;-75
2022/08/19 06:28:23;;;;;;;12.55;7.10;;;16.00;99.90;;;;;;5075422;28;20052;-75
2022/08/19 06:30:49;;;;;;;10.43;6.80;;;16.10;99.90;;;;;;5075333;28;20048;-74
2022/08/19 06:33:15;;;;;;;11.07;7.47;;;16.20;99.90;;;;;;5075036;28;20052;-75
2022/08/19 06:35:41;;;;;;;11.50;7.68;;;16.40;99.90;;;;;;5075943;28;20500;-76
2022/08/19 06:38:09;;;;;;;9.73;7.38;;;16.20;99.90;;;;;;5075351;28;20044;-75
2022/08/19 06:40:36;;;;;;;11.05;7.05;;;16.30;99.90;;;;;;5074301;28;20423;-75
2022/08/19 06:43:02;;;;;;;12.05;7.85;;;16.30;99.90;;;;;;5075807;28;20047;-75
2022/08/19 06:45:28;;;;;;;11.95;7.93;;;16.50;99.90;;;;;;5075176;28;20120;-75
2022/08/19 06:47:55;;;;;;;10.82;7.57;;;16.90;99.90;;;;;;5075116;28;20429;-75
2022/08/19 06:50:22;;;;;;;12.13;7.88;;;16.60;99.90;;;;;;5074970;28;20048;-76
2022/08/19 06:52:48;;;;;;;12.55;7.75;;;16.60;99.90;;;;;;5073825;28;20093;-75
2022/08/19 06:55:15;;;;;;;11.18;8.07;;;16.60;99.90;;;;;;5074026;28;20048;-75
2022/08/19 06:57:42;;;;;;;12.40;7.80;;;16.90;99.90;;;;;;5073931;28;20044;-77
2022/08/19 07:00:13;;;;;;;11.25;6.97;;;16.80;99.90;;;;;;5074917;28;20424;-73
2022/08/19 07:02:41;;;;;;;10.63;7.10;;;17.00;99.90;;;;;;5075113;28;20496;-73
2022/08/19 07:05:07;;;;;;;10.88;8.07;;;16.90;99.90;;;;;;5075053;28;20096;-73
2022/08/19 07:07:33;;;;;;;10.48;7.28;;;17.20;99.90;;;;;;5075563;28;20376;-73
2022/08/19 07:09:59;;;;;;;9.38;7.00;;;17.40;99.90;;;;;;5073854;28;20434;-73
2022/08/19 07:12:25;;;;;;;10.07;7.63;;;17.30;99.90;;;;;;5074750;28;20041;-74
2022/08/19 07:14:52;;;;;;;11.88;7.45;;;;;;;;;;5074566;28;20098;-74
2022/08/19 07:17:19;;;;;;;11.55;8.05;;;17.40;99.90;;;;;;5074583;28;20074;-74
2022/08/19 07:19:45;;;;;;;9.25;6.82;;;17.40;99.90;;;;;;5073384;28;20056;-73
2022/08/19 07:22:11;;;;;;;10.57;7.25;;;17.50;99.90;;;;;;5074443;28;20044;-74
2022/08/19 07:24:38;;;;;;;10.32;7.03;;;17.60;99.90;;;;;;5073210;28;20044;-74
2022/08/19 07:27:06;;;;;;;11.18;7.28;;;17.70;99.90;;;;;;5073730;28;20052;-79
2022/08/19 07:29:33;;;;;;;11.15;7.82;;;17.80;99.90;;;;;;5074012;28;20489;-78
2022/08/19 07:32:01;;;;;;;10.40;7.30;;;17.80;99.90;;;;;;5073625;28;20435;-82
2022/08/19 07:34:30;;;;;;;10.77;7.35;;;17.90;99.90;;;;;;5074121;28;20041;-80
2022/08/19 07:36:56;;;;;;;9.10;7.22;;;18.00;99.90;;;;;;5074259;28;20086;-80
2022/08/19 07:39:28;;;;;;;9.27;5.93;;;18.10;99.90;;;;;;5074262;28;20050;-81
2022/08/19 07:41:55;;;;;;;;;;;18.10;99.90;;;;;;5074466;28;20150;-81
2022/08/19 07:44:22;;;;;;;9.32;6.93;;;18.20;99.90;;;;;;5074090;28;20030;-81
2022/08/19 07:46:51;;;;;;;11.50;6.97;;;18.30;99.90;;;;;;5073215;28;20052;-80
2022/08/19 07:49:19;;;;;;;8.95;7.00;;;18.40;99.90;;;;;;5072624;28;20550;-81
2022/08/19 07:51:57;;;;;;;10.65;5.95;;;18.50;99.90;;;;;;5074668;28;20053;-81
2022/08/19 07:54:25;;;;;;;9.32;6.90;;;18.50;99.90;;;;;;5074051;28;20041;-81
2022/08/19 07:56:52;;;;;;;8.45;6.47;;;18.60;99.90;;;;;;5072799;28;20052;-81
2022/08/19 07:59:20;;;;;;;8.45;6.60;;;18.70;99.90;;;;;;5073816;28;20060;-81
2022/08/19 08:01:46;;;;;;;11.27;6.55;;;18.70;99.90;;;;;;5073718;28;20500;-81
2022/08/19 08:09:43;;;;;;;8.07;6.43;;;19.00;99.90;;;;;;5073033;28;20098;-80
2022/08/19 08:12:14;;;;;;;7.03;5.97;;;19.10;99.90;;;;;;5072606;28;20492;-81
2022/08/19 08:14:45;;;;;;;11.15;6.93;;;19.10;99.90;;;;;;5073849;28;20071;-81
2022/08/19 08:17:14;;;;;;;9.57;6.67;;;19.20;99.90;;;;;;5073073;28;20051;-81
2022/08/19 08:19:41;;;;;;;8.95;6.40;;;19.20;99.90;;;;;;5073499;28;20360;-81
2022/08/19 08:23:21;;;;;;;8.50;5.80;;;19.30;99.90;;;;;;5073627;28;20084;-80
2022/08/19 08:24:54;;;;;;;7.25;6.28;;;19.40;99.90;;;;;;5073578;28;20135;-81
2022/08/19 08:27:20;;;;;;;8.50;5.72;;;19.40;99.90;;;;;;5072433;28;20552;-75
2022/08/19 08:29:45;;;;;;;8.50;7.00;;;19.60;99.90;;;;;;5055681;28;20129;-73
2022/08/19 08:32:11;;;;;;;8.00;6.07;;;19.60;99.90;;;;;;5073332;28;20079;-74
2022/08/19 08:34:37;;;;;;;9.13;6.70;;;19.80;99.90;;;;;;5072754;28;20074;-73
2022/08/19 08:37:03;;;;;;;9.23;6.65;;;19.90;99.90;;;;;;5073473;28;20060;-74
2022/08/19 08:39:29;;;;;;;10.07;6.28;;;19.80;99.90;;;;;;5072487;28;20429;-74
2022/08/19 08:42:17;;;;;;;7.88;6.57;;;19.80;99.90;;;;;;5074044;28;20087;-75
2022/08/19 08:45:05;;;;;;;7.10;6.03;;;19.90;99.90;;;;;;5075945;28;20110;-74
2022/08/19 08:47:38;;;;;;;9.57;7.15;;;19.90;99.90;;;;;;5078034;28;20044;-75
2022/08/19 08:50:25;;;;;;;9.32;7.10;;;19.90;99.90;;;;;;5077373;28;20036;-75
2022/08/19 08:52:55;;;;;;;9.15;6.55;;;20.10;99.90;;;;;;5076682;28;20465;-75
2022/08/19 08:55:26;;;;;;;9.77;7.18;;;20.10;99.90;;;;;;5076322;28;20048;-74
2022/08/19 08:57:58;;;;;;;9.50;6.60;;;20.10;99.90;;;;;;5078105;28;20067;-75
2022/08/19 09:00:30;;;;;;;10.73;7.43;;;20.10;99.90;;;;;;5077824;28;20043;-75
2022/08/19 09:02:57;;;;;;;10.27;7.25;;;20.20;99.90;;;;;;5076972;28;20048;-76
2022/08/19 09:05:33;;;;;;;9.55;7.43;;;20.20;99.90;;;;;;5077176;28;20135;-75
2022/08/19 09:08:15;;;;;;;8.93;7.68;;;20.30;99.90;;;;;;5076175;28;20102;-74
2022/08/19 09:10:45;;;;;;;8.88;6.38;;;20.40;99.90;;;;;;5075692;28;20513;-74
2022/08/19 09:13:24;;;;;;;9.27;6.47;;;20.40;99.90;;;;;;5076711;28;20388;-74
2022/08/19 09:16:06;;;;;;;9.00;7.65;;;20.50;99.90;;;;;;5076663;28;20379;-74
2022/08/19 09:18:46;;;;;;;11.13;6.53;;;20.50;99.90;;;;;;5076329;28;20048;-74
2022/08/19 09:21:14;;;;;;;9.25;6.22;;;20.60;99.90;;;;;;5076395;28;20083;-74
2022/08/19 09:23:42;;;;;;;7.18;6.47;;;20.60;99.90;;;;;;5075097;28;20429;-75
2022/08/19 09:26:13;;;;;;;7.72;6.28;;;20.60;99.90;;;;;;5075879;28;20044;-74
2022/08/19 09:28:43;;;;;;;8.30;6.10;;;20.60;99.90;;;;;;5077316;28;20063;-75
2022/08/19 09:31:10;;;;;;;7.43;6.18;;;20.70;99.90;;;;;;5076325;28;20129;-75
2022/08/19 09:33:36;;;;;;;7.53;5.53;;;20.70;99.90;;;;;;5076002;28;20063;-73
2022/08/19 09:36:05;;;;;;;8.70;6.32;;;20.70;99.90;;;;;;5075059;28;20044;-74
2022/08/19 09:38:30;;;;;;;10.90;7.07;;;20.80;99.90;;;;;;5075703;28;20080;-74
2022/08/19 09:41:01;;;;;;;7.68;6.25;;;21.00;99.90;;;;;;5074644;28;20049;-74
2022/08/19 09:43:27;;;;;;;7.28;6.03;;;21.00;99.90;;;;;;5074896;28;20052;-73
2022/08/19 09:45:53;;;;;;;7.13;5.07;;;21.00;99.90;;;;;;5057653;28;20086;-74
2022/08/19 09:48:20;;;;;;;7.13;5.97;;;21.10;99.90;;;;;;5076447;28;20048;-74
2022/08/19 09:50:46;;;;;;;9.02;6.40;;;21.10;99.90;;;;;;5057717;28;20055;-73
2022/08/19 09:53:12;;;;;;;6.72;4.75;;;21.10;99.90;;;;;;5075104;28;20044;-73
2022/08/19 09:55:42;;;;;;;5.30;4.75;;;21.10;99.90;;;;;;5056929;28;20084;-73
2022/08/19 09:58:08;;;;;;;3.75;2.75;;;21.20;99.90;;;;;;5075659;28;20352;-74
2022/08/19 10:00:34;;;;;;;4.30;2.92;;;21.20;99.90;;;;;;5075206;28;20049;-74
2022/08/19 10:02:59;;;;;;;4.50;3.60;;;21.30;99.90;;;;;;5073895;28;20131;-74
2022/08/19 10:08:11;;;;;;;4.28;3.13;;;21.40;99.90;;;;;;5075577;28;20419;-75
2022/08/19 10:10:37;;;;;;;4.68;3.63;;;21.50;99.90;;;;;;5074585;28;20485;-73
2022/08/19 10:13:03;;;;;;;3.92;3.33;;;21.60;99.90;;;;;;5075418;28;20037;-75
2022/08/19 10:15:29;;;;;;;3.30;3.00;;;21.60;99.90;;;;;;5075861;28;20048;-72
2022/08/19 10:17:55;;;;;;;6.63;2.75;;;21.60;99.90;;;;;;5073565;28;20040;-74
2022/08/19 10:20:22;;;;;;;3.05;2.45;;;21.70;99.90;;;;;;5075071;28;20036;-74
2022/08/19 10:22:48;;;;;;;4.03;2.28;;;21.70;99.90;;;;;;5075224;28;20048;-73
2022/08/19 10:25:14;;;;;;;2.60;2.22;;;21.70;99.90;;;;;;5073809;28;20354;-73
2022/08/19 10:27:40;;;;;;;3.83;2.78;;;21.80;99.90;;;;;;5074993;28;20044;-73
2022/08/19 10:30:06;;;;;;;3.97;2.63;;;21.80;99.90;;;;;;5075235;28;20094;-74
2022/08/19 10:32:32;;;;;;;3.70;2.72;;;21.90;99.90;;;;;;5075334;28;20056;-73
2022/08/19 10:34:58;;;;;;;2.40;1.65;;;21.90;99.90;;;;;;5074423;28;20048;-73
2022/08/19 10:37:23;;;;;;;3.97;2.13;;;22.00;99.90;;;;;;5074544;28;20053;-73
2022/08/19 10:39:50;;;;;;;2.03;1.58;;;22.10;99.90;;;;;;5074962;28;20131;-73
2022/08/19 10:42:16;;;;;;;2.75;1.70;;;22.00;99.90;;;;;;5073582;28;20048;-72
2022/08/19 10:44:42;;;;;;;2.63;1.60;;;22.10;99.90;;;;;;5073846;28;20048;-73
2022/08/19 10:47:09;;;;;;;3.97;1.70;;;22.10;99.90;;;;;;5073436;28;20052;-73
2022/08/19 10:52:32;;;;;;;2.72;2.53;;;22.10;99.90;;;;;;5074578;28;20045;-72
2022/08/19 10:52:36;;;;;;;3.13;2.08;;;22.20;99.90;;;;;;5074230;28;20106;-72
2022/08/19 10:57:52;;;;;;;3.28;1.80;;;22.30;99.90;;;;;;5074791;28;20056;-73
2022/08/19 11:00:19;;;;;;;5.38;2.22;;;22.40;99.90;;;;;;5057619;28;20044;-73
2022/08/19 11:02:45;;;;;;;2.95;2.65;;;22.40;99.90;;;;;;5074411;28;20123;-74
2022/08/19 11:05:12;;;;;;;3.38;2.10;;;22.40;99.90;;;;;;5074659;28;20134;-73
2022/08/19 11:07:41;;;;;;;4.78;3.00;;;22.50;99.90;;;;;;5075408;28;20052;-74
2022/08/19 11:10:10;;;;;;;3.60;2.58;;;22.70;99.90;;;;;;5074637;28;20098;-73
2022/08/19 11:12:40;;;;;;;5.03;2.97;;;22.80;99.90;;;;;;5074301;28;20139;-73
2022/08/19 11:15:10;;;;;;;2.65;2.42;;;22.80;99.90;;;;;;5074666;28;20091;-73
2022/08/19 11:17:40;;;;;;;3.28;2.83;;;22.80;99.90;;;;;;5074676;28;20143;-72
2022/08/19 11:20:06;;;;;;;3.30;3.00;;;22.80;99.90;;;;;;5075407;28;20504;-73
2022/08/19 11:22:32;;;;;;;3.53;2.80;;;22.90;99.90;;;;;;5075031;28;20106;-73
2022/08/19 11:24:57;;;;;;;3.58;2.50;;;22.90;99.90;;;;;;5056594;28;20435;-74
2022/08/19 11:27:23;;;;;;;4.07;3.25;;;22.90;99.90;;;;;;5074667;28;20522;-74
2022/08/19 11:29:49;;;;;;;3.50;3.08;;;23.00;99.90;;;;;;5073253;28;20436;-73
2022/08/19 11:32:15;;;;;;;3.58;3.20;;;23.10;99.90;;;;;;5074073;28;20364;-73
2022/08/19 11:34:41;;;;;;;5.55;3.60;;;23.20;99.90;;;;;;5074225;28;20045;-74
2022/08/19 11:37:08;;;;;;;4.32;3.92;;;23.30;99.90;;;;;;5074114;28;20051;-73
2022/08/19 11:39:36;;;;;;;3.78;3.47;;;23.30;99.90;;;;;;5074448;28;20071;-74
2022/08/19 11:42:55;;;;;;;3.20;2.88;;;23.40;99.90;;;;;;5074096;28;20105;-73
2022/08/19 11:44:50;;;;;;;3.67;3.00;;;23.40;99.90;;;;;;5073629;28;20052;-73
2022/08/19 11:47:16;;;;;;;5.93;3.13;;;23.60;99.90;;;;;;5072871;28;20048;-75
2022/08/19 11:49:42;;;;;;;5.65;3.88;;;23.60;99.90;;;;;;5073934;28;20052;-75
2022/08/19 11:52:08;;;;;;;3.72;3.40;;;23.60;99.90;;;;;;5074678;28;20047;-77
2022/08/19 11:54:35;;;;;;;3.65;3.22;;;23.60;99.90;;;;;;5073966;28;20056;-74
2022/08/19 11:57:03;;;;;;;5.35;3.80;;;23.60;99.90;;;;;;5074417;28;20048;-74
2022/08/19 11:59:29;;;;;;;4.75;4.13;;;23.60;99.90;;;;;;5073614;28;20479;-74
2022/08/19 12:01:55;;;;;;;4.22;3.83;;;23.50;99.90;;;;;;5074063;28;20083;-74
2022/08/19 12:04:22;;;;;;;4.45;3.97;;;23.50;99.90;;;;;;5073750;28;20040;-74
2022/08/19 12:06:49;;;;;;;4.50;4.10;;;23.50;99.90;;;;;;5074441;28;20119;-74
2022/08/19 12:09:15;;;;;;;5.07;4.30;;;23.60;99.90;;;;;;5073598;28;20530;-75
2022/08/19 12:11:41;;;;;;;4.38;3.97;;;23.50;99.90;;;;;;5073421;28;20465;-74
2022/08/19 12:14:11;;;;;;;5.43;4.32;;;23.60;99.90;;;;;;5073704;28;20123;-74
2022/08/19 12:16:37;;;;;;;5.47;4.97;;;23.60;99.90;;;;;;5073489;28;20059;-74
2022/08/19 12:19:04;;;;;;;4.50;4.10;;;23.60;99.90;;;;;;5073059;28;20036;-72
2022/08/19 12:21:32;;;;;;;4.28;3.88;;;23.60;99.90;;;;;;5073593;28;20048;-73
2022/08/19 12:24:00;;;;;;;4.88;4.22;;;23.60;99.90;;;;;;5073571;28;20551;-73
2022/08/19 12:26:27;;;;;;;5.00;3.95;;;23.60;99.90;;;;;;5073073;28;20052;-72
2022/08/19 12:28:54;;;;;;;4.28;3.80;;;23.60;99.90;;;;;;5054563;28;20063;-72
2022/08/19 12:31:20;;;;;;;4.68;4.25;;;23.60;99.90;;;;;;5073011;28;20370;-72
2022/08/19 12:33:46;;;;;;;4.50;4.10;;;23.60;99.90;;;;;;5072910;28;20412;-73
2022/08/19 12:36:14;;;;;;;5.63;5.03;;;23.60;99.90;;;;;;5073465;28;20036;-74
2022/08/19 12:38:40;;;;;;;4.82;4.43;;;23.70;99.90;;;;;;5073468;28;20055;-73
2022/08/19 12:41:08;;;;;;;6.32;4.93;;;23.70;99.90;;;;;;5073504;28;20040;-74
2022/08/19 12:43:35;;;;;;;5.22;4.50;;;23.70;99.90;;;;;;5073490;28;20059;-73
2022/08/19 12:46:02;;;;;;;5.25;4.72;;;23.70;99.90;;;;;;5073431;28;20041;-74
2022/08/19 12:48:28;;;;;;;6.80;4.75;;;23.80;99.90;;;;;;5073470;28;20113;-73
2022/08/19 12:50:54;;;;;;;5.47;4.22;;;24.00;99.90;;;;;;5073244;28;20080;-73
2022/08/19 12:53:20;;;;;;;4.82;4.32;;;24.10;99.90;;;;;;5073203;28;20476;-73
2022/08/19 12:55:45;;;;;;;5.10;4.68;;;24.20;99.90;;;;;;5073872;28;20056;-73
2022/08/19 12:58:12;;;;;;;5.55;4.70;;;24.30;99.90;;;;;;5073320;28;20041;-74
2022/08/19 13:00:38;;;;;;;5.72;5.13;;;24.20;99.90;;;;;;5073257;28;20052;-73
2022/08/19 13:03:04;;;;;;;5.78;5.18;;;24.40;99.90;;;;;;5073281;28;20045;-74
2022/08/19 13:05:33;;;;;;;6.63;5.82;;;24.40;99.90;;;;;;5072267;28;20052;-74
2022/08/19 13:07:59;;;;;;;8.55;5.60;;;24.50;99.90;;;;;;5073161;28;20385;-74